createdAt,value
2018-08-24T00:01:02.762Z,100322.91
2018-08-24T00:03:31.760Z,100324.06
2018-08-24T00:06:00.727Z,100322.06
2018-08-24T00:08:29.598Z,100322.83
2018-08-24T00:10:58.502Z,100321.19
2018-08-24T00:13:27.519Z,100333.08
2018-08-24T00:15:56.560Z,100329.70
2018-08-24T00:18:25.425Z,100327.69
2018-08-24T00:20:54.430Z,100327.20
2018-08-24T00:23:23.428Z,100320.93
2018-08-24T00:25:52.341Z,100322.37
2018-08-24T00:28:21.270Z,100321.77
2018-08-24T00:30:50.137Z,100313.64
2018-08-24T00:33:19.097Z,100319.56
2018-08-24T00:35:48.003Z,100310.63
2018-08-24T00:38:16.884Z,100315.80
2018-08-24T00:40:45.844Z,100312.77
2018-08-24T00:43:14.719Z,100312.61
2018-08-24T00:45:43.661Z,100310.69
2018-08-24T00:48:12.618Z,100305.55
2018-08-24T00:50:41.554Z,100301.61
2018-08-24T00:53:10.468Z,100300.28
2018-08-24T00:55:39.478Z,100283.85
2018-08-24T00:58:08.432Z,100285.80
2018-08-24T01:00:43.909Z,100275.73
2018-08-24T01:03:14.472Z,100287.05
2018-08-24T01:05:43.403Z,100278.29
2018-08-24T01:08:12.396Z,100280.14
2018-08-24T01:10:41.872Z,100276.73
2018-08-24T01:13:13.852Z,100282.78
2018-08-24T01:15:48.679Z,100289.30
2018-08-24T01:18:20.281Z,100290.00
2018-08-24T01:20:52.162Z,100291.36
2018-08-24T01:23:22.793Z,100281.73
2018-08-24T01:25:51.775Z,100281.18
2018-08-24T01:28:21.097Z,100279.42
2018-08-24T01:30:50.330Z,100276.56
2018-08-24T01:33:19.554Z,100277.34
2018-08-24T01:35:48.844Z,100275.57
2018-08-24T01:38:17.834Z,100265.32
2018-08-24T01:40:46.743Z,100277.97
2018-08-24T01:43:15.635Z,100270.34
2018-08-24T01:45:44.739Z,100269.03
2018-08-24T01:48:13.737Z,100273.52
2018-08-24T01:50:42.794Z,100257.08
2018-08-24T01:53:11.870Z,100253.97
2018-08-24T01:55:40.891Z,100250.23
2018-08-24T01:58:09.793Z,100253.95
2018-08-24T02:00:38.844Z,100252.84
2018-08-24T02:03:07.893Z,100248.16
2018-08-24T02:05:36.779Z,100244.47
2018-08-24T02:08:05.835Z,100249.59
2018-08-24T02:10:34.726Z,100251.25
2018-08-24T02:13:09.165Z,100252.86
2018-08-24T02:15:43.258Z,100244.85
2018-08-24T02:18:17.800Z,100246.81
2018-08-24T02:20:51.929Z,100251.33
2018-08-24T02:23:20.993Z,100253.41
2018-08-24T02:25:49.848Z,100250.95
2018-08-24T02:28:18.813Z,100253.39
2018-08-24T02:30:47.790Z,100247.42
2018-08-24T02:33:16.785Z,100255.60
2018-08-24T02:35:45.632Z,100251.00
2018-08-24T02:38:14.605Z,100260.34
2018-08-24T02:40:43.484Z,100259.94
2018-08-24T02:43:12.435Z,100256.42
2018-08-24T02:45:41.339Z,100255.50
2018-08-24T02:48:10.305Z,100248.75
2018-08-24T02:50:39.238Z,100251.27
2018-08-24T02:53:08.152Z,100256.90
2018-08-24T02:55:37.039Z,100263.72
2018-08-24T02:58:06.046Z,100253.32
2018-08-24T03:00:34.940Z,100254.66
2018-08-24T03:03:03.824Z,100261.30
2018-08-24T03:05:33.000Z,100261.11
2018-08-24T03:08:01.876Z,100249.40
2018-08-24T03:10:30.868Z,100246.98
2018-08-24T03:12:59.938Z,100248.10
2018-08-24T03:15:28.827Z,100243.20
2018-08-24T03:17:57.715Z,100244.56
2018-08-24T03:20:26.739Z,100245.38
2018-08-24T03:22:55.932Z,100240.53
2018-08-24T03:25:24.840Z,100240.31
2018-08-24T03:27:53.801Z,100242.30
2018-08-24T03:30:22.716Z,100233.98
2018-08-24T03:32:51.653Z,100235.41
2018-08-24T03:35:20.542Z,100221.31
2018-08-24T03:37:49.412Z,100224.03
2018-08-24T03:40:18.683Z,100226.42
2018-08-24T03:42:47.551Z,100232.35
2018-08-24T03:45:16.473Z,100233.72
2018-08-24T03:47:45.407Z,100233.78
2018-08-24T03:50:19.164Z,100237.80
2018-08-24T03:52:48.122Z,100234.86
2018-08-24T03:55:16.974Z,100243.92
2018-08-24T03:57:45.837Z,100250.79
2018-08-24T04:00:17.114Z,100250.12
2018-08-24T04:02:46.499Z,100253.08
2018-08-24T04:05:16.099Z,100251.06
2018-08-24T04:07:45.067Z,100253.58
2018-08-24T04:10:13.927Z,100255.55
2018-08-24T04:12:42.845Z,100251.38
2018-08-24T04:15:11.791Z,100241.45
2018-08-24T04:17:42.970Z,100243.39
2018-08-24T04:20:12.365Z,100239.30
2018-08-24T04:22:41.314Z,100250.83
2018-08-24T04:25:10.677Z,100249.91
2018-08-24T04:27:40.016Z,100246.43
2018-08-24T04:30:09.494Z,100261.20
2018-08-24T04:32:38.479Z,100264.55
2018-08-24T04:35:07.525Z,100266.20
2018-08-24T04:37:36.649Z,100262.62
2018-08-24T04:40:05.773Z,100261.63
2018-08-24T04:42:34.814Z,100263.98
2018-08-24T04:45:03.742Z,100258.39
2018-08-24T04:47:32.685Z,100258.19
2018-08-24T04:50:01.631Z,100250.10
2018-08-24T04:52:30.659Z,100255.29
2018-08-24T04:54:59.567Z,100253.13
2018-08-24T04:57:28.524Z,100260.14
2018-08-24T04:59:57.424Z,100261.91
2018-08-24T05:02:26.289Z,100268.48
2018-08-24T05:04:55.270Z,100271.81
2018-08-24T05:07:24.263Z,100284.91
2018-08-24T05:09:53.117Z,100286.61
2018-08-24T05:12:22.211Z,100301.87
2018-08-24T05:14:51.111Z,100305.63
2018-08-24T05:17:20.003Z,100311.37
2018-08-24T05:19:48.962Z,100315.55
2018-08-24T05:22:17.849Z,100316.16
2018-08-24T05:24:46.912Z,100313.99
2018-08-24T05:27:15.819Z,100312.09
2018-08-24T05:29:44.810Z,100313.61
2018-08-24T05:32:13.714Z,100313.17
2018-08-24T05:34:42.687Z,100309.11
2018-08-24T05:37:11.564Z,100309.34
2018-08-24T05:39:40.473Z,100308.81
2018-08-24T05:42:09.417Z,100309.16
2018-08-24T05:44:38.286Z,100302.60
2018-08-24T05:47:07.603Z,100299.81
2018-08-24T05:49:36.599Z,100305.40
2018-08-24T05:52:05.499Z,100304.77
2018-08-24T05:54:34.417Z,100305.42
2018-08-24T05:57:03.380Z,100311.22
2018-08-24T05:59:32.272Z,100320.37
2018-08-24T06:02:01.152Z,100322.08
2018-08-24T06:04:30.092Z,100321.00
2018-08-24T06:06:58.972Z,100324.87
2018-08-24T06:09:27.858Z,100325.14
2018-08-24T06:11:56.779Z,100322.70
2018-08-24T06:14:25.650Z,100327.89
2018-08-24T06:17:00.026Z,100330.19
2018-08-24T06:19:28.913Z,100334.42
2018-08-24T06:21:57.791Z,100336.16
2018-08-24T06:24:26.819Z,100347.95
2018-08-24T06:26:55.749Z,100345.34
2018-08-24T06:29:24.647Z,100347.53
2018-08-24T06:31:53.605Z,100351.88
2018-08-24T06:34:22.532Z,100346.10
2018-08-24T06:36:51.477Z,100348.26
2018-08-24T06:39:20.416Z,100348.11
2018-08-24T06:41:49.420Z,100344.91
2018-08-24T06:44:18.333Z,100352.45
2018-08-24T06:46:47.260Z,100355.34
2018-08-24T06:49:16.223Z,100353.78
2018-08-24T06:51:45.139Z,100353.08
2018-08-24T06:54:14.113Z,100364.66
2018-08-24T06:56:43.004Z,100359.02
2018-08-24T06:59:11.914Z,100358.63
2018-08-24T07:01:40.972Z,100359.75
2018-08-24T07:04:09.904Z,100368.16
2018-08-24T07:06:38.851Z,100371.79
2018-08-24T07:16:56.194Z,100378.88
2018-08-24T07:19:25.154Z,100384.84
2018-08-24T07:21:54.059Z,100382.22
2018-08-24T07:24:23.333Z,100387.10
2018-08-24T07:26:52.280Z,100389.77
2018-08-24T07:29:21.230Z,100395.63
2018-08-24T07:31:50.094Z,100393.01
2018-08-24T07:34:19.446Z,100407.41
2018-08-24T07:36:48.430Z,100410.87
2018-08-24T07:39:17.301Z,100408.98
2018-08-24T07:41:46.299Z,100408.48
2018-08-24T07:44:15.207Z,100409.45
2018-08-24T07:46:44.150Z,100411.62
2018-08-24T07:49:13.084Z,100405.37
2018-08-24T07:51:41.996Z,100408.95
2018-08-24T07:54:10.901Z,100413.91
2018-08-24T07:56:39.804Z,100413.14
2018-08-24T07:59:08.773Z,100414.09
2018-08-24T08:01:37.653Z,100415.49
2018-08-24T08:04:06.663Z,100413.55
2018-08-24T08:06:35.554Z,100419.80
2018-08-24T08:09:06.270Z,100422.03
2018-08-24T08:11:39.260Z,100429.95
2018-08-24T08:14:08.338Z,100429.93
2018-08-24T08:16:37.201Z,100435.55
2018-08-24T08:19:06.152Z,100431.13
2018-08-24T08:21:35.025Z,100426.12
2018-08-24T08:24:04.014Z,100426.80
2018-08-24T08:26:32.978Z,100426.58
2018-08-24T08:29:01.887Z,100434.14
2018-08-24T08:31:30.914Z,100424.75
2018-08-24T08:33:59.817Z,100410.15
2018-08-24T08:36:28.838Z,100413.09
2018-08-24T08:38:57.754Z,100414.74
2018-08-24T08:41:26.602Z,100424.58
2018-08-24T08:43:55.557Z,100436.28
2018-08-24T08:46:24.464Z,100424.28
2018-08-24T08:48:53.399Z,100429.87
2018-08-24T08:51:22.346Z,100436.27
2018-08-24T08:53:51.287Z,100432.88
2018-08-24T08:56:20.167Z,100428.38
2018-08-24T08:58:49.221Z,100435.00
2018-08-24T09:01:18.072Z,100428.86
2018-08-24T09:03:46.975Z,100428.57
2018-08-24T09:06:15.928Z,100428.70
2018-08-24T09:08:44.875Z,100432.73
2018-08-24T09:11:13.755Z,100425.84
2018-08-24T09:13:42.701Z,100426.36
2018-08-24T09:16:11.574Z,100418.48
2018-08-24T09:18:45.938Z,100418.20
2018-08-24T09:21:20.071Z,100426.30
2018-08-24T09:23:54.288Z,100427.75
2018-08-24T09:26:28.566Z,100422.70
2018-08-24T09:28:58.554Z,100431.58
2018-08-24T09:31:30.233Z,100433.94
2018-08-24T09:33:59.504Z,100432.94
2018-08-24T09:36:28.365Z,100434.42
2018-08-24T09:38:57.254Z,100434.18
2018-08-24T09:41:26.211Z,100446.70
2018-08-24T09:43:55.307Z,100445.83
2018-08-24T09:46:29.624Z,100441.43
2018-08-24T09:49:03.939Z,100436.00
2018-08-24T09:51:32.887Z,100427.34
2018-08-24T09:54:05.796Z,100416.10
2018-08-24T09:56:35.798Z,100414.27
2018-08-24T09:59:04.724Z,100414.65
2018-08-24T10:01:39.199Z,100414.71
2018-08-24T10:04:13.571Z,100420.37
2018-08-24T10:06:47.978Z,100421.04
2018-08-24T10:09:16.827Z,100431.04
2018-08-24T10:11:45.685Z,100420.33
2018-08-24T10:14:14.642Z,100429.53
2018-08-24T10:16:43.555Z,100430.41
2018-08-24T10:19:13.526Z,100434.56
2018-08-24T10:21:42.491Z,100424.34
2018-08-24T10:24:11.588Z,100434.06
2018-08-24T10:26:40.900Z,100430.34
2018-08-24T10:29:09.998Z,100430.21
2018-08-24T10:31:38.829Z,100422.21
2018-08-24T10:34:08.122Z,100423.25
2018-08-24T10:36:37.076Z,100424.09
2018-08-24T10:39:08.508Z,100434.34
2018-08-24T10:41:37.280Z,100434.36
2018-08-24T10:44:06.358Z,100435.43
2018-08-24T10:46:35.265Z,100432.82
2018-08-24T10:49:04.229Z,100437.09
2018-08-24T10:51:33.129Z,100443.55
2018-08-24T10:54:02.013Z,100449.48
2018-08-24T10:56:31.234Z,100448.46
2018-08-24T10:59:00.239Z,100460.63
2018-08-24T11:01:29.116Z,100467.84
2018-08-24T11:03:58.074Z,100461.16
2018-08-24T11:06:27.045Z,100460.56
2018-08-24T11:08:56.093Z,100460.16
2018-08-24T11:11:25.216Z,100460.87
2018-08-24T11:13:54.106Z,100450.61
2018-08-24T11:16:22.969Z,100452.47
2018-08-24T11:18:51.936Z,100454.88
2018-08-24T11:21:20.809Z,100465.67
2018-08-24T11:23:49.708Z,100468.65
2018-08-24T11:26:18.941Z,100471.25
2018-08-24T11:28:48.369Z,100465.13
2018-08-24T11:31:36.479Z,100466.80
2018-08-24T11:34:05.817Z,100474.50
2018-08-24T11:36:34.846Z,100470.53
2018-08-24T11:39:05.036Z,100467.67
2018-08-24T11:41:33.907Z,100467.94
2018-08-24T11:44:02.772Z,100470.13
2018-08-24T11:46:31.689Z,100473.74
2018-08-24T11:49:00.601Z,100476.74
2018-08-24T11:51:29.449Z,100473.44
2018-08-24T11:53:58.403Z,100472.17
2018-08-24T11:56:27.252Z,100461.78
2018-08-24T11:58:56.189Z,100461.00
2018-08-24T12:01:25.102Z,100450.31
2018-08-24T12:03:54.045Z,100441.48
2018-08-24T12:06:22.942Z,100439.88
2018-08-24T12:08:51.991Z,100446.32
2018-08-24T12:11:20.852Z,100444.04
2018-08-24T12:13:49.872Z,100447.63
2018-08-24T12:16:18.802Z,100446.56
2018-08-24T12:18:47.686Z,100443.32
2018-08-24T12:21:16.772Z,100446.56
2018-08-24T12:23:45.600Z,100441.10
2018-08-24T12:26:14.477Z,100446.63
2018-08-24T12:28:43.380Z,100452.09
2018-08-24T12:31:12.334Z,100451.13
2018-08-24T12:33:41.236Z,100464.59
2018-08-24T12:36:13.783Z,100457.23
2018-08-24T12:38:43.181Z,100453.03
2018-08-24T12:41:12.528Z,100454.99
2018-08-24T12:43:41.503Z,100453.85
2018-08-24T12:46:10.496Z,100449.43
2018-08-24T12:48:39.319Z,100450.23
2018-08-24T12:51:08.377Z,100455.30
2018-08-24T12:53:37.477Z,100449.30
2018-08-24T12:56:10.754Z,100451.52
2018-08-24T12:58:39.632Z,100441.63
2018-08-24T13:01:08.572Z,100453.00
2018-08-24T13:03:37.647Z,100437.16
2018-08-24T13:06:06.508Z,100429.81
2018-08-24T13:08:35.443Z,100441.05
2018-08-24T13:11:04.641Z,100432.78
2018-08-24T13:13:34.105Z,100424.91
2018-08-24T13:16:02.995Z,100426.85
2018-08-24T13:18:31.959Z,100439.31
2018-08-24T13:21:00.837Z,100437.72
2018-08-24T13:23:29.719Z,100425.17
2018-08-24T13:25:58.684Z,100428.77
2018-08-24T13:28:27.567Z,100422.51
2018-08-24T13:30:56.444Z,100417.12
2018-08-24T13:33:25.378Z,100431.11
2018-08-24T13:35:54.268Z,100428.33
2018-08-24T13:38:23.142Z,100426.01
2018-08-24T13:40:52.085Z,100424.50
2018-08-24T13:43:20.981Z,100426.30
2018-08-24T13:45:49.864Z,100428.41
2018-08-24T13:48:18.841Z,100430.26
2018-08-24T13:50:47.703Z,100426.78
2018-08-24T13:53:16.708Z,100432.80
2018-08-24T13:55:45.681Z,100436.30
2018-08-24T13:58:14.571Z,100432.05
2018-08-24T14:00:43.667Z,100437.52
2018-08-24T14:03:14.158Z,100438.95
2018-08-24T14:05:43.105Z,100442.54
2018-08-24T14:08:12.011Z,100443.07
2018-08-24T14:10:40.975Z,100448.59
2018-08-24T14:13:09.910Z,100453.53
2018-08-24T14:15:38.767Z,100454.53
2018-08-24T14:18:07.986Z,100453.86
2018-08-24T14:20:36.853Z,100464.27
2018-08-24T14:23:05.892Z,100460.34
2018-08-24T14:25:34.816Z,100450.58
2018-08-24T14:28:03.673Z,100457.11
2018-08-24T14:30:32.629Z,100457.46
2018-08-24T14:33:01.517Z,100457.72
2018-08-24T14:35:30.400Z,100453.67
2018-08-24T14:37:59.304Z,100456.05
2018-08-24T14:40:28.219Z,100455.81
2018-08-24T14:42:57.110Z,100451.92
2018-08-24T14:45:26.150Z,100464.66
2018-08-24T14:47:55.154Z,100464.32
2018-08-24T14:50:24.162Z,100477.55
2018-08-24T14:52:53.192Z,100501.55
2018-08-24T14:55:22.092Z,100519.64
2018-08-24T14:57:50.992Z,100513.30
2018-08-24T15:00:19.982Z,100514.20
2018-08-24T15:02:48.843Z,100513.00
2018-08-24T15:05:17.844Z,100517.27
2018-08-24T15:07:46.772Z,100519.97
2018-08-24T15:10:15.648Z,100514.59
2018-08-24T15:12:44.524Z,100511.22
2018-08-24T15:15:13.488Z,100510.09
2018-08-24T15:17:42.390Z,100496.27
2018-08-24T15:20:11.277Z,100510.88
2018-08-24T15:22:40.217Z,100514.80
2018-08-24T15:25:09.130Z,100510.00
2018-08-24T15:27:37.992Z,100507.16
2018-08-24T15:30:07.000Z,100511.49
2018-08-24T15:32:35.888Z,100512.61
2018-08-24T15:35:04.792Z,100513.31
2018-08-24T15:37:33.768Z,100516.16
2018-08-24T15:40:02.642Z,100518.98
2018-08-24T15:42:31.519Z,100515.66
2018-08-24T15:45:00.434Z,100508.77
2018-08-24T15:47:29.358Z,100511.76
2018-08-24T15:49:58.251Z,100515.42
2018-08-24T15:52:27.291Z,100518.31
2018-08-24T15:54:56.231Z,100514.95
2018-08-24T15:57:25.081Z,100512.83
2018-08-24T15:59:54.140Z,100511.94
2018-08-24T16:02:23.088Z,100499.78
2018-08-24T16:04:52.020Z,100498.24
2018-08-24T16:07:21.058Z,100504.40
2018-08-24T16:09:49.933Z,100504.30
2018-08-24T16:12:18.919Z,100497.92
2018-08-24T16:14:47.805Z,100507.02
2018-08-24T16:17:17.174Z,100507.37
2018-08-24T16:19:46.077Z,100502.21
2018-08-24T16:22:15.051Z,100507.48
2018-08-24T16:24:44.136Z,100510.46
2018-08-24T16:27:17.649Z,100497.45
2018-08-24T16:29:46.527Z,100501.03
2018-08-24T16:32:15.432Z,100498.13
2018-08-24T16:34:44.496Z,100502.03
2018-08-24T16:37:13.383Z,100497.78
2018-08-24T16:39:42.247Z,100493.36
2018-08-24T16:42:11.226Z,100496.81
2018-08-24T16:44:40.102Z,100493.59
2018-08-24T16:47:08.989Z,100489.94
2018-08-24T16:49:37.959Z,100493.81
2018-08-24T16:52:06.821Z,100493.23
2018-08-24T16:54:35.717Z,100503.94
2018-08-24T16:57:04.799Z,100503.73
2018-08-24T16:59:33.689Z,100503.03
2018-08-24T17:02:02.556Z,100507.84
2018-08-24T17:04:31.525Z,100503.64
2018-08-24T17:07:00.423Z,100505.36
2018-08-24T17:09:29.292Z,100508.20
2018-08-24T17:11:58.246Z,100512.50
2018-08-24T17:14:27.229Z,100513.17
2018-08-24T17:16:56.108Z,100509.27
2018-08-24T17:19:25.081Z,100503.22
2018-08-24T17:21:53.928Z,100506.13
2018-08-24T17:24:22.840Z,100504.97
2018-08-24T17:26:51.807Z,100500.70
2018-08-24T17:29:20.698Z,100505.44
2018-08-24T17:31:49.602Z,100500.48
2018-08-24T17:34:18.706Z,100500.13
2018-08-24T17:36:47.604Z,100506.06
2018-08-24T17:39:16.556Z,100500.30
2018-08-24T17:41:45.593Z,100500.97
2018-08-24T17:44:14.454Z,100499.88
2018-08-24T17:46:43.395Z,100499.60
2018-08-24T17:49:12.388Z,100509.85
2018-08-24T17:51:41.288Z,100506.90
2018-08-24T17:54:10.190Z,100517.63
2018-08-24T17:56:39.181Z,100523.05
2018-08-24T17:59:08.084Z,100517.08
2018-08-24T18:01:37.011Z,100520.69
2018-08-24T18:04:06.456Z,100523.90
2018-08-24T18:06:35.493Z,100520.03
2018-08-24T18:09:07.501Z,100517.30
2018-08-24T18:11:36.665Z,100517.23
2018-08-24T18:14:06.273Z,100522.73
2018-08-24T18:16:36.110Z,100525.61
2018-08-24T18:19:06.203Z,100528.51
2018-08-24T18:21:35.385Z,100535.27
2018-08-24T18:24:04.289Z,100537.47
2018-08-24T18:26:33.192Z,100536.63
2018-08-24T18:29:02.239Z,100539.19
2018-08-24T18:31:31.151Z,100532.31
2018-08-24T18:34:00.068Z,100535.64
2018-08-24T18:36:29.053Z,100542.92
2018-08-24T18:38:57.995Z,100547.47
2018-08-24T18:41:26.883Z,100547.78
2018-08-24T18:43:55.963Z,100546.81
2018-08-24T18:46:24.883Z,100547.61
2018-08-24T18:48:53.831Z,100550.27
2018-08-24T18:51:22.850Z,100545.03
2018-08-24T18:53:51.745Z,100545.70
2018-08-24T18:56:20.667Z,100546.09
2018-08-24T18:58:49.684Z,100544.19
2018-08-24T19:01:18.712Z,100545.02
2018-08-24T19:03:47.634Z,100546.66
2018-08-24T19:06:16.688Z,100552.27
2018-08-24T19:08:45.628Z,100550.27
2018-08-24T19:11:20.011Z,100547.92
2018-08-24T19:13:48.995Z,100547.69
2018-08-24T19:16:17.881Z,100548.28
2018-08-24T19:18:52.339Z,100548.13
2018-08-24T19:21:26.631Z,100545.98
2018-08-24T19:23:55.612Z,100542.53
2018-08-24T19:26:24.862Z,100550.94
2018-08-24T19:28:59.225Z,100554.14
2018-08-24T19:31:28.126Z,100562.95
2018-08-24T19:33:57.057Z,100573.75
2018-08-24T19:36:26.090Z,100586.75
2018-08-24T19:38:55.008Z,100587.75
2018-08-24T19:41:29.560Z,100594.39
2018-08-24T19:43:58.623Z,100603.05
2018-08-24T19:46:27.422Z,100620.31
2018-08-24T19:49:01.739Z,100605.95
2018-08-24T19:51:30.645Z,100598.27
2018-08-24T19:53:59.562Z,100590.70
2018-08-24T19:56:28.576Z,100586.02
2018-08-24T19:59:04.228Z,100602.59
2018-08-24T20:01:34.167Z,100614.23
2018-08-24T20:04:03.925Z,100619.35
2018-08-24T20:06:38.250Z,100617.20
2018-08-24T20:09:15.099Z,100616.30
2018-08-24T20:11:46.743Z,100616.56
2018-08-24T20:14:15.883Z,100610.89
2018-08-24T20:16:50.243Z,100622.42
2018-08-24T20:19:19.227Z,100618.98
2018-08-24T20:21:49.050Z,100614.77
2018-08-24T20:24:18.329Z,100609.44
2018-08-24T20:26:48.215Z,100615.00
2018-08-24T20:29:17.228Z,100623.17
2018-08-24T20:31:46.280Z,100622.36
2018-08-24T20:34:15.326Z,100619.36
2018-08-24T20:36:44.452Z,100611.88
2018-08-24T20:39:13.478Z,100608.12
2018-08-24T20:41:42.588Z,100605.36
2018-08-24T20:44:11.623Z,100614.39
2018-08-24T20:46:41.119Z,100609.93
2018-08-24T20:49:10.504Z,100604.66
2018-08-24T20:51:39.368Z,100612.77
2018-08-24T20:54:08.375Z,100606.73
2018-08-24T20:56:37.268Z,100618.45
2018-08-24T20:59:06.243Z,100616.55
2018-08-24T21:01:35.235Z,100608.23
2018-08-24T21:04:04.138Z,100600.33
2018-08-24T21:06:33.839Z,100609.11
2018-08-24T21:09:02.796Z,100613.72
2018-08-24T21:11:31.762Z,100609.89
2018-08-24T21:14:00.648Z,100610.28
2018-08-24T21:16:29.672Z,100606.41
2018-08-24T21:18:58.524Z,100605.47
2018-08-24T21:21:27.395Z,100599.57
2018-08-24T21:23:56.341Z,100599.11
2018-08-24T21:26:25.208Z,100593.78
2018-08-24T21:28:54.088Z,100594.62
2018-08-24T21:31:23.028Z,100585.91
2018-08-24T21:33:51.908Z,100596.09
2018-08-24T21:36:25.052Z,100590.34
2018-08-24T21:38:55.213Z,100588.06
2018-08-24T21:41:24.285Z,100588.42
2018-08-24T21:43:53.239Z,100588.38
2018-08-24T21:46:22.158Z,100585.08
2018-08-24T21:48:51.085Z,100589.47
2018-08-24T21:51:20.052Z,100584.12
2018-08-24T21:53:49.096Z,100588.09
2018-08-24T21:56:17.995Z,100588.09
2018-08-24T21:58:47.065Z,100586.77
2018-08-24T22:01:15.956Z,100585.23
2018-08-24T22:03:44.868Z,100578.61
2018-08-24T22:06:13.854Z,100584.84
2018-08-24T22:08:42.795Z,100585.16
2018-08-24T22:11:11.667Z,100578.16
2018-08-24T22:13:40.857Z,100572.31
2018-08-24T22:16:09.756Z,100570.79
2018-08-24T22:18:38.685Z,100574.91
2018-08-24T22:21:07.607Z,100572.64
2018-08-24T22:23:40.160Z,100574.60
2018-08-24T22:26:09.879Z,100570.39
2018-08-24T22:28:40.598Z,100566.83
2018-08-24T22:31:10.226Z,100568.49
2018-08-24T22:33:39.134Z,100563.52
2018-08-24T22:36:08.124Z,100567.67
2018-08-24T22:38:37.194Z,100559.13
2018-08-24T22:41:06.376Z,100558.05
2018-08-24T22:43:35.823Z,100570.55
2018-08-24T22:46:05.629Z,100559.99
2018-08-24T22:48:34.601Z,100552.34
2018-08-24T22:51:04.331Z,100552.89
2018-08-24T22:53:33.314Z,100561.61
2018-08-24T22:56:02.213Z,100548.84
2018-08-24T22:58:31.096Z,100557.88
2018-08-24T23:01:00.099Z,100560.91
2018-08-24T23:03:29.017Z,100558.86
2018-08-24T23:05:57.898Z,100558.13
2018-08-24T23:11:28.863Z,100558.00
2018-08-24T23:13:58.264Z,100552.61
2018-08-24T23:16:27.143Z,100550.14
2018-08-24T23:18:56.019Z,100552.63
2018-08-24T23:21:24.982Z,100548.47
2018-08-24T23:23:53.877Z,100545.22
2018-08-24T23:26:22.760Z,100543.41
2018-08-24T23:28:51.707Z,100539.28
2018-08-24T23:31:20.632Z,100531.44
2018-08-24T23:33:49.534Z,100536.88
2018-08-24T23:36:18.500Z,100537.52
2018-08-24T23:38:47.418Z,100533.98
2018-08-24T23:41:16.290Z,100536.05
2018-08-24T23:43:45.212Z,100533.68
2018-08-24T23:46:14.091Z,100529.86
2018-08-24T23:48:42.953Z,100523.67
2018-08-24T23:51:11.942Z,100516.94
2018-08-24T23:53:40.802Z,100514.77
2018-08-24T23:56:09.696Z,100523.12
2018-08-24T23:58:38.705Z,100522.98
